• Join FlightAware (Why Join?)
  • Login
  • US Flag 
05:29AM EDT


 

Airport Tracker/Info


-or-


 

Live Flight TrackerFlight Track Log ✈ SKW6345 ✈ 22-Jun-2013 ✈ KBZN - KSFO

Flight Track Log - Related Links

Times and Time Zones

All times are in EDT time to prevent confusion due to time zone crossing. See the SKW6345 flight status page for this flight to view local times or setup timezone preferences in your user account.

Time Position Orientation Groundspeed Altitude Reporting Facility
EDT Latitude Longitude Course Direction KTS MPH feet Rate Location/Type
02:05PM 45.7081 -111.1983 236° Southwest 226 260 8,500  Level Salt Lake Center
02:06PM 45.7092 -111.2933 271° West 233 268 10,700 2,220 Climbing Salt Lake Center
02:07PM 45.7538 -111.7254 288° West  Level FlightAware Approximate
02:07PM 45.7189 -111.3967 278° West 254 292 13,200  Level Salt Lake Center
02:08PM 45.7864 -111.8720 288° West  Level FlightAware Approximate
02:08PM 45.7308 -111.5006 279° West 261 300 15,700  Level Salt Lake Center
02:09PM 45.8244 -112.0294 289° West  Level FlightAware Approximate
02:10PM 45.8401 -112.1866 234° Southwest  Level FlightAware Approximate
02:10PM 45.7439 -111.6186 279° West 293 337 16,900  Level Salt Lake Center
02:11PM 45.7733 -111.7692 286° West 328 377 18,900 1,740 Climbing Salt Lake Center
02:12PM 45.8017 -111.8989 287° West 337 388 20,600 1,500 Climbing Salt Lake Center
02:13PM 45.8306 -112.0317 287° West 347 399 22,100 1,440 Climbing Salt Lake Center
02:14PM 45.8492 -112.1697 281° West 358 412 23,600 960 Climbing Salt Lake Center
02:15PM 45.7967 -112.2922 238° Southwest 364 419 24,200 540 Climbing Salt Lake Center
02:16PM 45.7306 -112.4197 233° Southwest 391 450 24,800 540 Climbing Salt Lake Center
02:17PM 45.6475 -112.5769 233° Southwest 411 473 25,400 600 Climbing Salt Lake Center
02:18PM 45.5756 -112.7114 233° Southwest 425 489 26,100 600 Climbing Salt Lake Center
02:19PM 45.5036 -112.8483 233° Southwest 430 495 26,700 720 Climbing Salt Lake Center
02:20PM 45.4319 -112.9836 233° Southwest 429 494 27,700 900 Climbing Salt Lake Center
02:21PM 45.3606 -113.1178 233° Southwest 427 491 28,600 840 Climbing Salt Lake Center
02:22PM 45.2847 -113.2578 232° Southwest 423 487 29,500 960 Climbing Salt Lake Center
02:23PM 45.2056 -113.4028 232° Southwest 417 480 30,600 840 Climbing Salt Lake Center
02:24PM 45.1403 -113.5258 233° Southwest 409 471 31,300 600 Climbing Salt Lake Center
02:25PM 45.0606 -113.6669 231° Southwest 412 474 31,900 300 Climbing Salt Lake Center
02:26PM 44.9961 -113.7906 234° Southwest 411 473 32,000  Climbing Salt Lake Center
02:27PM 44.9144 -113.9378 232° Southwest 424 488 32,000  Level Salt Lake Center
02:28PM 44.8433 -114.0644 232° Southwest 434 499 32,000  Level Salt Lake Center
02:29PM 44.7600 -114.2186 233° Southwest 442 509 32,000  Level Salt Lake Center
02:30PM 44.6753 -114.3408 226° Southwest 449 517 32,000  Level Salt Lake Center
02:31PM 44.5783 -114.4850 227° Southwest 453 521 32,000  Level Salt Lake Center
02:32PM 44.4969 -114.6075 227° Southwest 449 517 32,000  Level Salt Lake Center
02:33PM 44.4183 -114.7283 228° Southwest 444 511 32,000  Level Salt Lake Center
02:34PM 44.3236 -114.8686 227° Southwest 442 509 32,000  Level Salt Lake Center
02:35PM 44.2422 -114.9875 226° Southwest 442 509 32,000  Level Salt Lake Center
02:36PM 44.1461 -115.1275 226° Southwest 443 510 32,000  Level Salt Lake Center
02:37PM 44.0667 -115.2419 226° Southwest 430 495 32,000  Level Salt Lake Center
02:38PM 43.9736 -115.3778 226° Southwest 431 496 32,000  Level Salt Lake Center
02:39PM 43.8933 -115.4936 226° Southwest 432 497 32,000  Level Salt Lake Center
02:41PM 43.8011 -115.6281 226° Southwest 430 495 32,000  Level Salt Lake Center
02:42PM 43.7208 -115.7439 226° Southwest 433 498 32,000  Level Salt Lake Center
02:43PM 43.6406 -115.8592 226° Southwest 433 498 32,000  Level Salt Lake Center
02:44PM 43.5475 -115.9922 226° Southwest 431 496 32,000  Level Salt Lake Center
02:45PM 43.4658 -116.1075 226° Southwest 436 502 32,000  Level Salt Lake Center
02:46PM 43.3722 -116.2400 226° Southwest 432 497 32,000  Level Salt Lake Center
02:47PM 43.2919 -116.3542 226° Southwest 433 498 32,000  Level Salt Lake Center
02:48PM 43.1969 -116.4847 225° Southwest 431 496 32,000  Level Salt Lake Center
02:49PM 43.1169 -116.5978 226° Southwest 431 496 32,000  Level Salt Lake Center
02:50PM 43.0225 -116.7289 225° Southwest 431 496 32,000  Level Salt Lake Center
02:51PM 42.9431 -116.8400 226° Southwest 429 494 32,000  Level Salt Lake Center
02:52PM 42.8619 -116.9506 225° Southwest 430 495 32,000  Level Salt Lake Center
02:53PM 42.7675 -117.0792 225° Southwest 430 495 32,000  Level Salt Lake Center
02:54PM 42.6867 -117.1906 225° Southwest 431 496 32,000  Level Salt Lake Center
02:55PM 42.5922 -117.3172 225° Southwest 427 491 32,000  Level Salt Lake Center
02:56PM 42.5119 -117.4281 226° Southwest 429 494 32,000  Level Salt Lake Center
02:57PM 42.4172 -117.5544 225° Southwest 427 491 32,000  Level Salt Lake Center
02:58PM 42.3364 -117.6639 225° Southwest 429 494 32,000  Level Salt Lake Center
02:59PM 42.2422 -117.7914 225° Southwest 429 494 32,000  Level Salt Lake Center
03:00PM 42.1628 -117.8994 225° Southwest 426 490 32,000  Level Salt Lake Center
03:01PM 42.0686 -118.0236 224° Southwest 426 490 32,000  Level Salt Lake Center
03:02PM 41.9875 -118.1297 224° Southwest 425 489 32,000  Level Salt Lake Center
03:03PM 41.9067 -118.2369 225° Southwest 426 490 32,000  Level Salt Lake Center
03:04PM 41.8103 -118.3617 224° Southwest 428 493 32,000  Level Salt Lake Center
03:05PM 41.7306 -118.4667 225° Southwest 425 489 32,000  Level Salt Lake Center
03:06PM 41.6350 -118.5906 224° Southwest 428 493 32,000  Level Salt Lake Center
03:07PM 41.5533 -118.6967 224° Southwest 428 493 32,000  Level Salt Lake Center
03:08PM 41.4564 -118.8208 224° Southwest 429 494 32,000  Level Salt Lake Center
03:09PM 41.3758 -118.9261 224° Southwest 428 493 32,000  Level Salt Lake Center
03:10PM 41.2797 -119.0478 224° Southwest 428 493 32,000  Level Salt Lake Center
03:12PM 41.1972 -119.1522 224° Southwest 428 493 32,000  Level Salt Lake Center
03:13PM 41.1006 -119.2747 224° Southwest 430 495 32,000  Level Salt Lake Center
03:14PM 41.0183 -119.3786 224° Southwest 429 494 32,000  Level Salt Lake Center
03:15PM 40.9231 -119.4981 223° Southwest 431 496 32,000  Level Salt Lake Center
03:16PM 40.8375 -119.6058 224° Southwest 426 490 32,000  Level Salt Lake Center
03:17PM 40.7358 -119.7339 224° Southwest 428 493 32,000  Level Oakland Center
03:18PM 40.6511 -119.8400 224° Southwest 425 489 32,000  Level Oakland Center
03:19PM 40.5647 -119.9472 223° Southwest 425 489 32,000  Level Oakland Center
03:20PM 40.4747 -120.0575 223° Southwest 433 498 32,000  Level Oakland Center
03:21PM 40.3908 -120.1611 223° Southwest 424 488 32,000  Level Oakland Center
03:22PM 40.3044 -120.2672 223° Southwest 424 488 32,000  Level Oakland Center
03:23PM 40.2003 -120.3942 223° Southwest 426 490 32,000  Level Oakland Center
03:24PM 40.1142 -120.4964 222° Southwest 423 487 32,000  Level Oakland Center
03:25PM 40.0275 -120.6008 223° Southwest 422 486 32,000  Level Oakland Center
03:26PM 39.9525 -120.6947 224° Southwest 426 490 32,000  Level Oakland Center
03:27PM 39.8481 -120.8181 222° Southwest 423 487 32,000  Level Oakland Center
03:28PM 39.7617 -120.9208 222° Southwest 423 487 32,000  Level Oakland Center
03:29PM 39.6753 -121.0231 222° Southwest 422 486 32,000  Level Oakland Center
03:30PM 39.5903 -121.1253 223° Southwest 418 481 32,000  Level Oakland Center
03:31PM 39.5089 -121.2222 223° Southwest 422 486 32,000  Level Oakland Center
03:32PM 39.4167 -121.3297 222° Southwest 422 486 32,000  Level Oakland Center
03:33PM 39.3306 -121.4317 222° Southwest 421 484 32,000  Level Oakland Center
03:34PM 39.2453 -121.5322 222° Southwest 419 482 32,000  Level Oakland Center
03:35PM 39.1417 -121.6531 222° Southwest 421 484 32,000  Level Oakland Center
03:36PM 39.0536 -121.7558 222° Southwest 428 493 32,000  Level Oakland Center
03:37PM 38.9669 -121.8572 222° Southwest 424 488 32,000 -420 Level Oakland Center
03:38PM 38.8797 -121.9589 222° Southwest 427 491 31,200 -900 Descending Oakland Center
03:39PM 38.7894 -122.0608 221° Southwest 435 501 30,200 -1,020 Descending Oakland Center
03:40PM 38.7006 -122.1642 222° Southwest 434 499 29,200 -1,080 Descending Oakland Center
03:41PM 38.6006 -122.2761 221° Southwest 436 502 28,100 -1,080 Descending Oakland Center
03:42PM 38.5097 -122.3800 222° Southwest 437 503 27,100 -1,320 Descending Oakland Center
03:43PM 38.4200 -122.4853 223° Southwest 439 505 25,500 -2,100 Descending Oakland Center
03:44PM 38.3278 -122.5894 222° Southwest 443 510 22,800 -2,640 Descending Oakland Center
03:45PM 38.2356 -122.6936 222° Southwest 446 513 20,100 -3,000 Descending Oakland Center
03:46PM 38.1300 -122.8092 221° Southwest 423 487 16,700 -2,880 Descending Oakland Center
03:48PM 38.0203 -122.8017 177° South 411 473 14,300 -2,400 Descending Oakland Center
03:49PM 37.9331 -122.7083 140° Southeast 415 478 11,800 -1,680 Descending Oakland Center
03:50PM 37.8511 -122.6222 140° Southeast 403 464 10,900 -420 Descending Oakland Center
03:51PM 37.7508 -122.5153 140° Southeast 402 463 11,000  Climbing Oakland Center
03:52PM 37.6669 -122.4261 140° Southeast 398 458 11,000 -60 Level Oakland Center
03:53PM 37.5833 -122.3333 139° Southeast 381 438 10,900 -1,260 Descending Northern Cal TRACON
03:54PM 37.5000 -122.3000 162° South 302 348 8,500 -2,400 Descending Northern Cal TRACON
03:55PM 37.4500 -122.2167 127° Southeast 277 319 6,100 -2,280 Descending Northern Cal TRACON
03:56PM 37.5000 -122.1500 47° Northeast 266 306 4,000 -1,500 Descending Northern Cal TRACON
03:57PM 37.5333 -122.1833 322° Northwest 207 238 3,100 -1,020 Descending Northern Cal TRACON
03:58PM 37.5667 -122.2500 302° West 203 234 2,000 -1,140 Descending Northern Cal TRACON